sensor_id;sensor_type;location;lat;lon;timestamp;P1;durP1;ratioP1;P2;durP2;ratioP2
63398;SDS011;49533;-34.520;150.798;2023-02-11T00:02:02;3.00;;;2.80;;
63398;SDS011;49533;-34.520;150.798;2023-02-11T00:04:30;2.85;;;2.50;;
63398;SDS011;49533;-34.520;150.798;2023-02-11T00:06:57;3.28;;;2.35;;
63398;SDS011;49533;-34.520;150.798;2023-02-11T00:09:24;3.78;;;3.30;;
63398;SDS011;49533;-34.520;150.798;2023-02-11T00:11:51;3.10;;;2.80;;
63398;SDS011;49533;-34.520;150.798;2023-02-11T00:14:18;2.70;;;2.50;;
63398;SDS011;49533;-34.520;150.798;2023-02-11T00:16:45;2.90;;;2.70;;
63398;SDS011;49533;-34.520;150.798;2023-02-11T00:19:13;2.95;;;2.67;;
63398;SDS011;49533;-34.520;150.798;2023-02-11T00:21:40;3.13;;;2.47;;
63398;SDS011;49533;-34.520;150.798;2023-02-11T00:24:07;4.90;;;2.47;;
63398;SDS011;49533;-34.520;150.798;2023-02-11T00:26:34;2.42;;;2.22;;
63398;SDS011;49533;-34.520;150.798;2023-02-11T00:29:02;2.38;;;2.28;;
63398;SDS011;49533;-34.520;150.798;2023-02-11T00:31:30;4.88;;;2.80;;
63398;SDS011;49533;-34.520;150.798;2023-02-11T00:33:57;3.42;;;2.75;;
63398;SDS011;49533;-34.520;150.798;2023-02-11T00:36:25;3.35;;;2.60;;
63398;SDS011;49533;-34.520;150.798;2023-02-11T00:38:54;2.78;;;2.58;;
63398;SDS011;49533;-34.520;150.798;2023-02-11T00:41:22;3.70;;;3.40;;
63398;SDS011;49533;-34.520;150.798;2023-02-11T00:43:50;3.92;;;3.33;;
63398;SDS011;49533;-34.520;150.798;2023-02-11T00:46:18;4.35;;;3.60;;
63398;SDS011;49533;-34.520;150.798;2023-02-11T00:48:45;5.03;;;3.10;;
63398;SDS011;49533;-34.520;150.798;2023-02-11T00:51:13;3.85;;;3.05;;
63398;SDS011;49533;-34.520;150.798;2023-02-11T00:53:40;6.25;;;3.22;;
63398;SDS011;49533;-34.520;150.798;2023-02-11T00:56:08;5.97;;;3.70;;
63398;SDS011;49533;-34.520;150.798;2023-02-11T00:58:35;6.05;;;3.38;;
63398;SDS011;49533;-34.520;150.798;2023-02-11T01:01:03;5.18;;;3.70;;
63398;SDS011;49533;-34.520;150.798;2023-02-11T01:03:30;8.88;;;4.47;;
63398;SDS011;49533;-34.520;150.798;2023-02-11T01:05:58;8.63;;;4.05;;
63398;SDS011;49533;-34.520;150.798;2023-02-11T01:08:26;7.75;;;4.00;;
63398;SDS011;49533;-34.520;150.798;2023-02-11T01:10:55;5.60;;;4.10;;
63398;SDS011;49533;-34.520;150.798;2023-02-11T01:13:23;8.90;;;4.45;;
63398;SDS011;49533;-34.520;150.798;2023-02-11T01:15:51;5.57;;;4.85;;
63398;SDS011;49533;-34.520;150.798;2023-02-11T01:18:19;10.23;;;5.13;;
63398;SDS011;49533;-34.520;150.798;2023-02-11T01:20:46;6.82;;;4.70;;
63398;SDS011;49533;-34.520;150.798;2023-02-11T01:23:14;6.40;;;4.47;;
63398;SDS011;49533;-34.520;150.798;2023-02-11T01:25:41;9.27;;;4.60;;
63398;SDS011;49533;-34.520;150.798;2023-02-11T01:28:14;7.85;;;4.82;;
63398;SDS011;49533;-34.520;150.798;2023-02-11T01:30:42;9.93;;;4.90;;
63398;SDS011;49533;-34.520;150.798;2023-02-11T01:33:10;8.75;;;4.70;;
63398;SDS011;49533;-34.520;150.798;2023-02-11T01:35:37;8.98;;;4.55;;
63398;SDS011;49533;-34.520;150.798;2023-02-11T01:38:05;9.02;;;3.97;;
63398;SDS011;49533;-34.520;150.798;2023-02-11T01:40:33;11.63;;;4.30;;
63398;SDS011;49533;-34.520;150.798;2023-02-11T01:43:00;7.57;;;4.10;;
63398;SDS011;49533;-34.520;150.798;2023-02-11T01:48:28;7.47;;;3.53;;
63398;SDS011;49533;-34.520;150.798;2023-02-11T01:51:03;8.45;;;3.78;;
63398;SDS011;49533;-34.520;150.798;2023-02-11T01:53:40;5.97;;;3.65;;
63398;SDS011;49533;-34.520;150.798;2023-02-11T01:56:20;4.47;;;3.38;;
63398;SDS011;49533;-34.520;150.798;2023-02-11T01:59:03;8.95;;;3.40;;
63398;SDS011;49533;-34.520;150.798;2023-02-11T02:01:36;7.05;;;3.20;;
63398;SDS011;49533;-34.520;150.798;2023-02-11T02:04:07;5.05;;;3.30;;
63398;SDS011;49533;-34.520;150.798;2023-02-11T02:06:39;10.00;;;4.32;;
63398;SDS011;49533;-34.520;150.798;2023-02-11T02:09:15;4.78;;;3.92;;
63398;SDS011;49533;-34.520;150.798;2023-02-11T02:11:49;6.25;;;3.30;;
63398;SDS011;49533;-34.520;150.798;2023-02-11T02:14:16;5.20;;;3.70;;
63398;SDS011;49533;-34.520;150.798;2023-02-11T02:16:44;8.32;;;3.92;;
63398;SDS011;49533;-34.520;150.798;2023-02-11T02:19:23;8.88;;;3.92;;
63398;SDS011;49533;-34.520;150.798;2023-02-11T02:25:06;6.13;;;3.17;;
63398;SDS011;49533;-34.520;150.798;2023-02-11T02:31:04;5.10;;;3.38;;
63398;SDS011;49533;-34.520;150.798;2023-02-11T02:33:51;3.88;;;2.70;;
63398;SDS011;49533;-34.520;150.798;2023-02-11T02:36:31;5.00;;;3.33;;
63398;SDS011;49533;-34.520;150.798;2023-02-11T02:39:14;4.75;;;3.15;;
63398;SDS011;49533;-34.520;150.798;2023-02-11T02:41:46;6.28;;;3.30;;
63398;SDS011;49533;-34.520;150.798;2023-02-11T02:44:16;6.32;;;3.17;;
63398;SDS011;49533;-34.520;150.798;2023-02-11T02:46:44;4.25;;;2.80;;
63398;SDS011;49533;-34.520;150.798;2023-02-11T02:49:12;4.07;;;3.08;;
63398;SDS011;49533;-34.520;150.798;2023-02-11T02:54:49;4.65;;;2.47;;
63398;SDS011;49533;-34.520;150.798;2023-02-11T02:57:44;7.88;;;2.83;;
63398;SDS011;49533;-34.520;150.798;2023-02-11T03:00:36;3.95;;;2.88;;
63398;SDS011;49533;-34.520;150.798;2023-02-11T03:03:17;5.75;;;2.92;;
63398;SDS011;49533;-34.520;150.798;2023-02-11T03:05:57;5.05;;;2.80;;
63398;SDS011;49533;-34.520;150.798;2023-02-11T03:08:33;4.13;;;2.40;;
63398;SDS011;49533;-34.520;150.798;2023-02-11T03:11:06;2.95;;;2.67;;
63398;SDS011;49533;-34.520;150.798;2023-02-11T03:13:36;3.22;;;2.25;;
63398;SDS011;49533;-34.520;150.798;2023-02-11T03:16:08;4.32;;;2.70;;
63398;SDS011;49533;-34.520;150.798;2023-02-11T03:18:40;5.68;;;2.95;;
63398;SDS011;49533;-34.520;150.798;2023-02-11T03:21:10;4.97;;;2.47;;
63398;SDS011;49533;-34.520;150.798;2023-02-11T03:23:43;5.68;;;2.70;;
63398;SDS011;49533;-34.520;150.798;2023-02-11T03:26:25;3.80;;;2.55;;
63398;SDS011;49533;-34.520;150.798;2023-02-11T03:29:01;6.22;;;2.75;;
63398;SDS011;49533;-34.520;150.798;2023-02-11T03:31:40;7.07;;;3.00;;
63398;SDS011;49533;-34.520;150.798;2023-02-11T03:34:26;8.20;;;2.88;;
63398;SDS011;49533;-34.520;150.798;2023-02-11T03:37:07;5.93;;;3.13;;
63398;SDS011;49533;-34.520;150.798;2023-02-11T03:39:41;5.30;;;2.88;;
63398;SDS011;49533;-34.520;150.798;2023-02-11T03:42:16;6.00;;;3.08;;
63398;SDS011;49533;-34.520;150.798;2023-02-11T03:44:48;4.40;;;2.83;;
63398;SDS011;49533;-34.520;150.798;2023-02-11T03:47:20;5.75;;;2.97;;
63398;SDS011;49533;-34.520;150.798;2023-02-11T03:49:51;6.53;;;2.58;;
63398;SDS011;49533;-34.520;150.798;2023-02-11T03:52:21;4.10;;;2.60;;
63398;SDS011;49533;-34.520;150.798;2023-02-11T03:54:50;6.63;;;2.40;;
63398;SDS011;49533;-34.520;150.798;2023-02-11T03:57:22;4.80;;;2.90;;
63398;SDS011;49533;-34.520;150.798;2023-02-11T03:59:52;4.35;;;2.50;;
63398;SDS011;49533;-34.520;150.798;2023-02-11T04:02:22;4.38;;;2.63;;
63398;SDS011;49533;-34.520;150.798;2023-02-11T04:04:56;6.47;;;2.63;;
63398;SDS011;49533;-34.520;150.798;2023-02-11T04:07:24;7.80;;;2.92;;
63398;SDS011;49533;-34.520;150.798;2023-02-11T04:09:51;5.55;;;2.53;;
63398;SDS011;49533;-34.520;150.798;2023-02-11T04:12:19;4.68;;;2.55;;
63398;SDS011;49533;-34.520;150.798;2023-02-11T04:14:46;4.63;;;2.80;;
63398;SDS011;49533;-34.520;150.798;2023-02-11T04:17:13;5.20;;;2.60;;
63398;SDS011;49533;-34.520;150.798;2023-02-11T04:19:40;6.97;;;2.83;;
63398;SDS011;49533;-34.520;150.798;2023-02-11T04:22:07;6.45;;;2.42;;
63398;SDS011;49533;-34.520;150.798;2023-02-11T04:24:35;6.00;;;3.13;;
63398;SDS011;49533;-34.520;150.798;2023-02-11T04:27:02;5.18;;;2.47;;
63398;SDS011;49533;-34.520;150.798;2023-02-11T04:29:30;4.60;;;2.30;;
63398;SDS011;49533;-34.520;150.798;2023-02-11T04:31:57;5.00;;;2.58;;
63398;SDS011;49533;-34.520;150.798;2023-02-11T04:34:24;7.78;;;2.83;;
63398;SDS011;49533;-34.520;150.798;2023-02-11T04:36:52;6.35;;;2.35;;
63398;SDS011;49533;-34.520;150.798;2023-02-11T04:39:19;3.20;;;2.13;;
63398;SDS011;49533;-34.520;150.798;2023-02-11T04:41:46;5.20;;;2.53;;
63398;SDS011;49533;-34.520;150.798;2023-02-11T04:44:13;8.15;;;2.45;;
63398;SDS011;49533;-34.520;150.798;2023-02-11T04:46:40;4.05;;;2.53;;
63398;SDS011;49533;-34.520;150.798;2023-02-11T04:49:08;4.38;;;2.17;;
63398;SDS011;49533;-34.520;150.798;2023-02-11T04:51:38;5.70;;;2.65;;
63398;SDS011;49533;-34.520;150.798;2023-02-11T04:54:05;4.97;;;2.75;;
63398;SDS011;49533;-34.520;150.798;2023-02-11T04:56:32;4.80;;;2.42;;
63398;SDS011;49533;-34.520;150.798;2023-02-11T04:58:59;7.45;;;2.83;;
63398;SDS011;49533;-34.520;150.798;2023-02-11T05:01:27;5.05;;;2.67;;
63398;SDS011;49533;-34.520;150.798;2023-02-11T05:03:55;6.00;;;2.72;;
63398;SDS011;49533;-34.520;150.798;2023-02-11T05:06:22;3.53;;;2.33;;
63398;SDS011;49533;-34.520;150.798;2023-02-11T05:08:49;8.82;;;2.20;;
63398;SDS011;49533;-34.520;150.798;2023-02-11T05:11:18;5.78;;;2.42;;
63398;SDS011;49533;-34.520;150.798;2023-02-11T05:13:46;5.68;;;2.25;;
63398;SDS011;49533;-34.520;150.798;2023-02-11T05:16:14;6.43;;;2.35;;
63398;SDS011;49533;-34.520;150.798;2023-02-11T05:18:42;5.75;;;2.35;;
63398;SDS011;49533;-34.520;150.798;2023-02-11T05:21:11;5.00;;;2.50;;
63398;SDS011;49533;-34.520;150.798;2023-02-11T05:23:41;3.58;;;2.33;;
63398;SDS011;49533;-34.520;150.798;2023-02-11T05:26:08;4.65;;;2.17;;
63398;SDS011;49533;-34.520;150.798;2023-02-11T05:31:09;5.97;;;2.50;;
63398;SDS011;49533;-34.520;150.798;2023-02-11T05:33:39;5.10;;;2.28;;
63398;SDS011;49533;-34.520;150.798;2023-02-11T05:36:09;5.60;;;2.30;;
63398;SDS011;49533;-34.520;150.798;2023-02-11T05:38:37;4.28;;;2.30;;
63398;SDS011;49533;-34.520;150.798;2023-02-11T05:41:07;4.28;;;2.30;;
63398;SDS011;49533;-34.520;150.798;2023-02-11T05:43:34;7.35;;;2.45;;
63398;SDS011;49533;-34.520;150.798;2023-02-11T05:46:02;5.53;;;2.17;;
63398;SDS011;49533;-34.520;150.798;2023-02-11T05:48:29;3.42;;;2.40;;
63398;SDS011;49533;-34.520;150.798;2023-02-11T05:50:57;6.25;;;2.42;;
63398;SDS011;49533;-34.520;150.798;2023-02-11T05:53:24;4.18;;;1.80;;
63398;SDS011;49533;-34.520;150.798;2023-02-11T05:55:51;4.97;;;2.45;;
63398;SDS011;49533;-34.520;150.798;2023-02-11T05:58:18;4.35;;;2.28;;
63398;SDS011;49533;-34.520;150.798;2023-02-11T06:00:46;6.30;;;2.33;;
63398;SDS011;49533;-34.520;150.798;2023-02-11T06:03:13;6.22;;;2.25;;
63398;SDS011;49533;-34.520;150.798;2023-02-11T06:05:41;7.13;;;2.80;;
63398;SDS011;49533;-34.520;150.798;2023-02-11T06:08:09;6.07;;;2.65;;
63398;SDS011;49533;-34.520;150.798;2023-02-11T06:10:36;6.10;;;2.00;;
63398;SDS011;49533;-34.520;150.798;2023-02-11T06:13:06;4.15;;;2.40;;
63398;SDS011;49533;-34.520;150.798;2023-02-11T06:15:34;4.28;;;2.30;;
63398;SDS011;49533;-34.520;150.798;2023-02-11T06:18:01;5.40;;;2.40;;
63398;SDS011;49533;-34.520;150.798;2023-02-11T06:20:28;5.20;;;2.30;;
63398;SDS011;49533;-34.520;150.798;2023-02-11T06:22:55;4.15;;;2.10;;
63398;SDS011;49533;-34.520;150.798;2023-02-11T06:25:22;7.63;;;2.67;;
63398;SDS011;49533;-34.520;150.798;2023-02-11T06:27:49;6.63;;;2.53;;
63398;SDS011;49533;-34.520;150.798;2023-02-11T06:30:16;6.57;;;2.40;;
63398;SDS011;49533;-34.520;150.798;2023-02-11T06:32:44;6.00;;;2.45;;
63398;SDS011;49533;-34.520;150.798;2023-02-11T06:35:12;3.13;;;1.98;;
63398;SDS011;49533;-34.520;150.798;2023-02-11T06:37:40;5.65;;;2.60;;
63398;SDS011;49533;-34.520;150.798;2023-02-11T06:40:08;6.30;;;2.35;;
63398;SDS011;49533;-34.520;150.798;2023-02-11T06:42:36;7.25;;;2.60;;
63398;SDS011;49533;-34.520;150.798;2023-02-11T06:45:03;5.07;;;2.05;;
63398;SDS011;49533;-34.520;150.798;2023-02-11T06:47:33;2.92;;;2.15;;
63398;SDS011;49533;-34.520;150.798;2023-02-11T06:50:00;4.55;;;2.28;;
63398;SDS011;49533;-34.520;150.798;2023-02-11T06:52:27;5.38;;;2.60;;
63398;SDS011;49533;-34.520;150.798;2023-02-11T06:54:54;5.30;;;2.45;;
63398;SDS011;49533;-34.520;150.798;2023-02-11T06:57:21;5.43;;;2.38;;
63398;SDS011;49533;-34.520;150.798;2023-02-11T06:59:48;4.70;;;2.30;;
63398;SDS011;49533;-34.520;150.798;2023-02-11T07:02:16;5.57;;;2.47;;
63398;SDS011;49533;-34.520;150.798;2023-02-11T07:04:43;6.43;;;2.35;;
63398;SDS011;49533;-34.520;150.798;2023-02-11T07:07:11;4.53;;;2.30;;
63398;SDS011;49533;-34.520;150.798;2023-02-11T07:09:38;6.97;;;2.67;;
63398;SDS011;49533;-34.520;150.798;2023-02-11T07:12:05;6.38;;;2.83;;
63398;SDS011;49533;-34.520;150.798;2023-02-11T07:14:35;4.53;;;2.60;;
63398;SDS011;49533;-34.520;150.798;2023-02-11T07:17:02;5.40;;;2.22;;
63398;SDS011;49533;-34.520;150.798;2023-02-11T07:19:29;4.90;;;2.53;;
63398;SDS011;49533;-34.520;150.798;2023-02-11T07:21:57;5.15;;;2.45;;
63398;SDS011;49533;-34.520;150.798;2023-02-11T07:24:24;3.72;;;2.58;;
63398;SDS011;49533;-34.520;150.798;2023-02-11T07:26:52;6.90;;;2.97;;
63398;SDS011;49533;-34.520;150.798;2023-02-11T07:29:19;5.15;;;2.80;;
63398;SDS011;49533;-34.520;150.798;2023-02-11T07:31:46;6.25;;;2.53;;
63398;SDS011;49533;-34.520;150.798;2023-02-11T07:34:13;4.45;;;2.70;;
63398;SDS011;49533;-34.520;150.798;2023-02-11T07:36:41;7.82;;;3.00;;
63398;SDS011;49533;-34.520;150.798;2023-02-11T07:39:09;5.85;;;3.00;;
63398;SDS011;49533;-34.520;150.798;2023-02-11T07:41:37;4.75;;;2.55;;
63398;SDS011;49533;-34.520;150.798;2023-02-11T07:44:05;6.32;;;2.85;;
63398;SDS011;49533;-34.520;150.798;2023-02-11T07:46:32;6.35;;;2.50;;
63398;SDS011;49533;-34.520;150.798;2023-02-11T07:49:00;4.85;;;2.63;;
63398;SDS011;49533;-34.520;150.798;2023-02-11T07:51:27;6.68;;;3.10;;
63398;SDS011;49533;-34.520;150.798;2023-02-11T07:53:56;6.28;;;3.10;;
63398;SDS011;49533;-34.520;150.798;2023-02-11T07:56:25;4.47;;;2.25;;
63398;SDS011;49533;-34.520;150.798;2023-02-11T07:58:53;6.72;;;2.88;;
63398;SDS011;49533;-34.520;150.798;2023-02-11T08:01:22;4.97;;;2.42;;
63398;SDS011;49533;-34.520;150.798;2023-02-11T08:03:53;4.60;;;2.67;;
63398;SDS011;49533;-34.520;150.798;2023-02-11T08:06:22;8.85;;;2.80;;
63398;SDS011;49533;-34.520;150.798;2023-02-11T08:08:51;7.00;;;2.78;;
63398;SDS011;49533;-34.520;150.798;2023-02-11T08:11:20;5.15;;;2.85;;
63398;SDS011;49533;-34.520;150.798;2023-02-11T08:13:48;7.53;;;2.78;;
63398;SDS011;49533;-34.520;150.798;2023-02-11T08:16:19;9.25;;;3.17;;
63398;SDS011;49533;-34.520;150.798;2023-02-11T08:18:49;7.80;;;3.00;;
63398;SDS011;49533;-34.520;150.798;2023-02-11T08:21:17;8.73;;;2.85;;
63398;SDS011;49533;-34.520;150.798;2023-02-11T08:23:45;4.50;;;2.70;;
63398;SDS011;49533;-34.520;150.798;2023-02-11T08:26:16;11.95;;;3.80;;
63398;SDS011;49533;-34.520;150.798;2023-02-11T08:28:45;8.15;;;2.95;;
63398;SDS011;49533;-34.520;150.798;2023-02-11T08:31:16;8.65;;;3.13;;
63398;SDS011;49533;-34.520;150.798;2023-02-11T08:33:45;7.97;;;3.17;;
63398;SDS011;49533;-34.520;150.798;2023-02-11T08:36:14;6.78;;;2.88;;
63398;SDS011;49533;-34.520;150.798;2023-02-11T08:38:44;14.45;;;3.42;;
63398;SDS011;49533;-34.520;150.798;2023-02-11T08:41:12;6.70;;;2.92;;
63398;SDS011;49533;-34.520;150.798;2023-02-11T08:43:40;10.88;;;3.28;;
63398;SDS011;49533;-34.520;150.798;2023-02-11T08:46:08;7.88;;;2.92;;
63398;SDS011;49533;-34.520;150.798;2023-02-11T08:48:39;6.10;;;2.95;;
63398;SDS011;49533;-34.520;150.798;2023-02-11T08:51:07;7.38;;;3.05;;
63398;SDS011;49533;-34.520;150.798;2023-02-11T08:53:35;7.05;;;3.03;;
63398;SDS011;49533;-34.520;150.798;2023-02-11T08:56:02;7.45;;;3.10;;
63398;SDS011;49533;-34.520;150.798;2023-02-11T08:58:29;8.10;;;3.30;;
63398;SDS011;49533;-34.520;150.798;2023-02-11T09:00:57;9.05;;;3.13;;
63398;SDS011;49533;-34.520;150.798;2023-02-11T09:03:24;7.57;;;3.00;;
63398;SDS011;49533;-34.520;150.798;2023-02-11T09:05:51;8.23;;;3.10;;
63398;SDS011;49533;-34.520;150.798;2023-02-11T09:08:19;8.90;;;3.25;;
63398;SDS011;49533;-34.520;150.798;2023-02-11T09:10:46;9.02;;;3.17;;
63398;SDS011;49533;-34.520;150.798;2023-02-11T09:13:14;9.85;;;3.30;;
63398;SDS011;49533;-34.520;150.798;2023-02-11T09:15:43;8.98;;;3.03;;
63398;SDS011;49533;-34.520;150.798;2023-02-11T09:18:11;8.23;;;3.00;;
63398;SDS011;49533;-34.520;150.798;2023-02-11T09:20:39;9.48;;;3.45;;
63398;SDS011;49533;-34.520;150.798;2023-02-11T09:23:06;9.13;;;3.50;;
63398;SDS011;49533;-34.520;150.798;2023-02-11T09:25:34;11.00;;;3.35;;
63398;SDS011;49533;-34.520;150.798;2023-02-11T09:28:06;8.52;;;3.10;;
63398;SDS011;49533;-34.520;150.798;2023-02-11T09:30:34;9.70;;;3.00;;
63398;SDS011;49533;-34.520;150.798;2023-02-11T09:33:03;7.68;;;3.45;;
63398;SDS011;49533;-34.520;150.798;2023-02-11T09:35:30;7.80;;;3.17;;
63398;SDS011;49533;-34.520;150.798;2023-02-11T09:37:57;7.78;;;3.33;;
63398;SDS011;49533;-34.520;150.798;2023-02-11T09:40:24;6.22;;;3.10;;
63398;SDS011;49533;-34.520;150.798;2023-02-11T09:42:54;9.27;;;3.25;;
63398;SDS011;49533;-34.520;150.798;2023-02-11T09:45:33;7.38;;;3.00;;
63398;SDS011;49533;-34.520;150.798;2023-02-11T09:48:04;11.88;;;3.70;;
63398;SDS011;49533;-34.520;150.798;2023-02-11T09:50:42;9.43;;;3.80;;
63398;SDS011;49533;-34.520;150.798;2023-02-11T09:53:24;9.32;;;3.05;;
63398;SDS011;49533;-34.520;150.798;2023-02-11T09:55:55;9.00;;;3.50;;
63398;SDS011;49533;-34.520;150.798;2023-02-11T09:58:26;10.20;;;3.25;;
63398;SDS011;49533;-34.520;150.798;2023-02-11T10:01:05;9.23;;;3.53;;
63398;SDS011;49533;-34.520;150.798;2023-02-11T10:03:58;10.00;;;3.97;;
63398;SDS011;49533;-34.520;150.798;2023-02-11T10:06:42;8.52;;;3.50;;
63398;SDS011;49533;-34.520;150.798;2023-02-11T10:15:15;8.63;;;3.38;;
63398;SDS011;49533;-34.520;150.798;2023-02-11T10:21:03;6.85;;;3.53;;
63398;SDS011;49533;-34.520;150.798;2023-02-11T10:23:43;8.50;;;3.50;;
63398;SDS011;49533;-34.520;150.798;2023-02-11T10:26:15;10.85;;;3.72;;
63398;SDS011;49533;-34.520;150.798;2023-02-11T10:28:47;7.57;;;3.15;;
63398;SDS011;49533;-34.520;150.798;2023-02-11T10:31:23;10.75;;;3.80;;
63398;SDS011;49533;-34.520;150.798;2023-02-11T10:33:58;9.68;;;3.53;;
63398;SDS011;49533;-34.520;150.798;2023-02-11T10:36:30;8.82;;;3.35;;
63398;SDS011;49533;-34.520;150.798;2023-02-11T10:39:01;11.90;;;4.10;;
63398;SDS011;49533;-34.520;150.798;2023-02-11T10:41:43;10.63;;;3.65;;
63398;SDS011;49533;-34.520;150.798;2023-02-11T10:44:22;7.10;;;3.65;;
63398;SDS011;49533;-34.520;150.798;2023-02-11T10:46:54;10.77;;;3.75;;
63398;SDS011;49533;-34.520;150.798;2023-02-11T10:49:33;7.13;;;3.78;;
63398;SDS011;49533;-34.520;150.798;2023-02-11T10:52:11;7.93;;;3.65;;
63398;SDS011;49533;-34.520;150.798;2023-02-11T10:54:58;9.65;;;3.75;;
63398;SDS011;49533;-34.520;150.798;2023-02-11T10:57:30;12.65;;;3.72;;
63398;SDS011;49533;-34.520;150.798;2023-02-11T11:00:05;10.13;;;3.33;;
63398;SDS011;49533;-34.520;150.798;2023-02-11T11:02:53;8.10;;;3.65;;
63398;SDS011;49533;-34.520;150.798;2023-02-11T11:05:29;7.50;;;3.28;;
63398;SDS011;49533;-34.520;150.798;2023-02-11T11:07:59;10.32;;;4.25;;
63398;SDS011;49533;-34.520;150.798;2023-02-11T11:10:37;9.48;;;3.53;;
63398;SDS011;49533;-34.520;150.798;2023-02-11T11:13:29;9.30;;;3.60;;
63398;SDS011;49533;-34.520;150.798;2023-02-11T11:18:47;11.50;;;4.32;;
63398;SDS011;49533;-34.520;150.798;2023-02-11T11:21:19;8.93;;;3.90;;
63398;SDS011;49533;-34.520;150.798;2023-02-11T11:23:51;9.52;;;3.47;;
63398;SDS011;49533;-34.520;150.798;2023-02-11T11:26:23;9.48;;;3.90;;
63398;SDS011;49533;-34.520;150.798;2023-02-11T11:28:54;13.55;;;3.80;;
63398;SDS011;49533;-34.520;150.798;2023-02-11T11:31:33;9.40;;;3.95;;
63398;SDS011;49533;-34.520;150.798;2023-02-11T11:34:18;9.68;;;3.78;;
63398;SDS011;49533;-34.520;150.798;2023-02-11T11:36:57;8.32;;;3.85;;
63398;SDS011;49533;-34.520;150.798;2023-02-11T11:39:28;10.95;;;3.80;;
63398;SDS011;49533;-34.520;150.798;2023-02-11T11:42:00;10.30;;;4.07;;
63398;SDS011;49533;-34.520;150.798;2023-02-11T11:44:32;10.23;;;4.00;;
63398;SDS011;49533;-34.520;150.798;2023-02-11T11:47:06;16.48;;;4.18;;
63398;SDS011;49533;-34.520;150.798;2023-02-11T11:49:47;13.68;;;3.58;;
63398;SDS011;49533;-34.520;150.798;2023-02-11T11:52:32;11.57;;;3.97;;
63398;SDS011;49533;-34.520;150.798;2023-02-11T11:55:21;11.80;;;4.10;;
63398;SDS011;49533;-34.520;150.798;2023-02-11T11:57:59;10.18;;;3.63;;
63398;SDS011;49533;-34.520;150.798;2023-02-11T12:00:31;13.38;;;4.25;;
63398;SDS011;49533;-34.520;150.798;2023-02-11T12:03:13;6.93;;;3.10;;
63398;SDS011;49533;-34.520;150.798;2023-02-11T12:06:24;8.13;;;3.47;;
63398;SDS011;49533;-34.520;150.798;2023-02-11T12:09:14;9.98;;;3.20;;
63398;SDS011;49533;-34.520;150.798;2023-02-11T12:12:01;7.18;;;3.20;;
63398;SDS011;49533;-34.520;150.798;2023-02-11T12:14:58;6.95;;;3.38;;
63398;SDS011;49533;-34.520;150.798;2023-02-11T12:17:55;6.65;;;3.22;;
63398;SDS011;49533;-34.520;150.798;2023-02-11T12:20:50;8.50;;;3.58;;
63398;SDS011;49533;-34.520;150.798;2023-02-11T12:26:14;8.02;;;3.30;;
63398;SDS011;49533;-34.520;150.798;2023-02-11T12:28:51;8.70;;;3.00;;
63398;SDS011;49533;-34.520;150.798;2023-02-11T12:31:39;5.45;;;3.15;;
63398;SDS011;49533;-34.520;150.798;2023-02-11T12:34:27;6.35;;;2.80;;
63398;SDS011;49533;-34.520;150.798;2023-02-11T12:37:14;8.90;;;3.92;;
63398;SDS011;49533;-34.520;150.798;2023-02-11T12:43:04;9.65;;;3.63;;
63398;SDS011;49533;-34.520;150.798;2023-02-11T12:45:55;7.82;;;3.40;;
63398;SDS011;49533;-34.520;150.798;2023-02-11T12:48:39;6.13;;;3.45;;
63398;SDS011;49533;-34.520;150.798;2023-02-11T12:51:30;7.28;;;3.20;;
63398;SDS011;49533;-34.520;150.798;2023-02-11T12:57:06;6.93;;;3.42;;
63398;SDS011;49533;-34.520;150.798;2023-02-11T13:02:55;10.80;;;3.75;;
63398;SDS011;49533;-34.520;150.798;2023-02-11T13:05:43;6.63;;;3.55;;
63398;SDS011;49533;-34.520;150.798;2023-02-11T13:11:17;9.27;;;4.00;;
63398;SDS011;49533;-34.520;150.798;2023-02-11T13:13:52;6.72;;;3.40;;
63398;SDS011;49533;-34.520;150.798;2023-02-11T13:16:37;6.05;;;3.22;;
63398;SDS011;49533;-34.520;150.798;2023-02-11T13:19:20;9.55;;;3.72;;
63398;SDS011;49533;-34.520;150.798;2023-02-11T13:22:10;6.38;;;3.13;;
63398;SDS011;49533;-34.520;150.798;2023-02-11T13:24:52;8.05;;;3.30;;
63398;SDS011;49533;-34.520;150.798;2023-02-11T13:27:31;7.15;;;3.33;;
63398;SDS011;49533;-34.520;150.798;2023-02-11T13:30:20;11.90;;;3.65;;
63398;SDS011;49533;-34.520;150.798;2023-02-11T13:35:46;8.88;;;3.60;;
63398;SDS011;49533;-34.520;150.798;2023-02-11T13:38:34;6.88;;;3.15;;
63398;SDS011;49533;-34.520;150.798;2023-02-11T13:41:02;5.95;;;3.35;;
63398;SDS011;49533;-34.520;150.798;2023-02-11T13:43:33;8.05;;;3.30;;
63398;SDS011;49533;-34.520;150.798;2023-02-11T13:46:02;11.05;;;3.42;;
63398;SDS011;49533;-34.520;150.798;2023-02-11T13:48:33;7.25;;;3.42;;
63398;SDS011;49533;-34.520;150.798;2023-02-11T13:51:05;4.35;;;3.20;;
63398;SDS011;49533;-34.520;150.798;2023-02-11T13:53:45;10.32;;;3.47;;
63398;SDS011;49533;-34.520;150.798;2023-02-11T13:56:28;6.28;;;3.67;;
63398;SDS011;49533;-34.520;150.798;2023-02-11T13:59:02;6.68;;;3.15;;
63398;SDS011;49533;-34.520;150.798;2023-02-11T14:01:43;3.65;;;2.53;;
63398;SDS011;49533;-34.520;150.798;2023-02-11T14:05:18;5.03;;;2.63;;
63398;SDS011;49533;-34.520;150.798;2023-02-11T14:08:13;5.70;;;3.17;;
63398;SDS011;49533;-34.520;150.798;2023-02-11T14:10:56;5.35;;;2.70;;
63398;SDS011;49533;-34.520;150.798;2023-02-11T14:16:27;6.60;;;2.67;;
63398;SDS011;49533;-34.520;150.798;2023-02-11T14:18:56;6.75;;;2.63;;
63398;SDS011;49533;-34.520;150.798;2023-02-11T14:21:32;8.40;;;3.00;;
63398;SDS011;49533;-34.520;150.798;2023-02-11T14:27:10;7.97;;;3.03;;
63398;SDS011;49533;-34.520;150.798;2023-02-11T14:29:49;5.43;;;2.47;;
63398;SDS011;49533;-34.520;150.798;2023-02-11T14:32:34;4.40;;;2.58;;
63398;SDS011;49533;-34.520;150.798;2023-02-11T14:35:21;5.18;;;2.50;;
63398;SDS011;49533;-34.520;150.798;2023-02-11T14:38:09;5.80;;;2.67;;
63398;SDS011;49533;-34.520;150.798;2023-02-11T14:40:54;4.32;;;2.55;;
63398;SDS011;49533;-34.520;150.798;2023-02-11T14:43:39;4.80;;;2.60;;
63398;SDS011;49533;-34.520;150.798;2023-02-11T14:46:11;6.88;;;2.53;;
63398;SDS011;49533;-34.520;150.798;2023-02-11T14:48:43;3.70;;;2.38;;
63398;SDS011;49533;-34.520;150.798;2023-02-11T14:51:20;4.40;;;2.20;;
63398;SDS011;49533;-34.520;150.798;2023-02-11T14:53:54;4.28;;;2.33;;
63398;SDS011;49533;-34.520;150.798;2023-02-11T14:56:27;5.38;;;2.40;;
63398;SDS011;49533;-34.520;150.798;2023-02-11T14:58:56;4.25;;;2.17;;
63398;SDS011;49533;-34.520;150.798;2023-02-11T15:01:26;4.68;;;2.10;;
63398;SDS011;49533;-34.520;150.798;2023-02-11T15:03:58;4.60;;;1.98;;
63398;SDS011;49533;-34.520;150.798;2023-02-11T15:06:30;4.07;;;2.08;;
63398;SDS011;49533;-34.520;150.798;2023-02-11T15:09:05;4.05;;;2.10;;
63398;SDS011;49533;-34.520;150.798;2023-02-11T15:11:42;4.22;;;1.92;;
63398;SDS011;49533;-34.520;150.798;2023-02-11T15:14:20;4.43;;;2.00;;
63398;SDS011;49533;-34.520;150.798;2023-02-11T15:16:51;5.55;;;2.25;;
63398;SDS011;49533;-34.520;150.798;2023-02-11T15:19:24;5.30;;;2.33;;
63398;SDS011;49533;-34.520;150.798;2023-02-11T15:22:02;5.32;;;2.05;;
63398;SDS011;49533;-34.520;150.798;2023-02-11T15:24:33;5.03;;;2.28;;
63398;SDS011;49533;-34.520;150.798;2023-02-11T15:27:01;5.30;;;2.10;;
63398;SDS011;49533;-34.520;150.798;2023-02-11T15:29:40;4.43;;;2.13;;
63398;SDS011;49533;-34.520;150.798;2023-02-11T15:32:13;4.00;;;1.88;;